Time,TemperatureF,DewpointF,PressureIn,WindDirection,WindDirectionDegrees,WindSpeedMPH,WindSpeedGustMPH,Humidity,HourlyPrecipIn,Conditions,Clouds,dailyrainin,SoftwareType,DateUTC
2013-05-31 00:20:00,66.3,65.1,29.55,South,180,1.0,5.0,96,0.00,,SKC,0.00,VWS V14.01,2013-05-31 05:20:00,
2013-05-31 00:30:00,66.4,65.2,29.55,South,180,1.0,5.0,96,0.00,,SKC,0.00,VWS V14.01,2013-05-31 05:30:00,
2013-05-31 00:40:00,66.5,65.3,29.56,South,180,0.0,4.0,96,0.00,,SKC,0.00,VWS V14.01,2013-05-31 05:40:00,
2013-05-31 00:50:00,66.5,65.3,29.56,South,180,0.0,4.0,96,0.00,,SKC,0.00,VWS V14.01,2013-05-31 05:50:00,
2013-05-31 01:00:00,66.5,65.3,29.57,South,180,0.0,3.0,96,0.00,,SKC,0.00,VWS V14.01,2013-05-31 06:00:00,
2013-05-31 01:10:00,66.5,65.3,29.57,South,180,0.0,0.0,96,0.00,,SKC,0.00,VWS V14.01,2013-05-31 06:10:00,
2013-05-31 01:20:00,66.4,65.2,29.57,South,180,0.0,0.0,96,0.00,,SKC,0.00,VWS V14.01,2013-05-31 06:20:00,
2013-05-31 01:30:00,66.3,65.1,29.57,South,180,0.0,0.0,96,0.00,,SKC,0.00,VWS V14.01,2013-05-31 06:30:00,
2013-05-31 01:40:00,66.2,65.0,29.57,South,180,0.0,0.0,96,0.00,,SKC,0.00,VWS V14.01,2013-05-31 06:40:00,
2013-05-31 01:50:00,66.1,64.9,29.57,South,180,0.0,0.0,96,0.00,,SKC,0.00,VWS V14.01,2013-05-31 06:50:00,
2013-05-31 02:00:00,65.9,64.4,29.55,South,180,0.0,0.0,95,0.00,,SKC,0.00,VWS V14.01,2013-05-31 07:00:00,
2013-05-31 02:10:00,65.5,64.0,29.54,South,180,0.0,4.0,95,0.00,,SKC,0.00,VWS V14.01,2013-05-31 07:10:00,
2013-05-31 02:20:00,65.3,64.1,29.54,South,180,1.0,5.0,96,0.00,,SKC,0.00,VWS V14.01,2013-05-31 07:20:00,
2013-05-31 02:30:00,65.1,63.9,29.54,South,180,0.0,0.0,96,0.00,,SKC,0.00,VWS V14.01,2013-05-31 07:30:00,
2013-05-31 02:40:00,65.1,63.9,29.52,South,180,0.0,0.0,96,0.00,,SKC,0.00,VWS V14.01,2013-05-31 07:40:00,
2013-05-31 02:50:00,64.9,63.7,29.56,South,180,0.0,0.0,96,0.00,,SKC,0.00,VWS V14.01,2013-05-31 07:50:00,
2013-05-31 03:00:00,64.9,63.7,29.55,South,180,0.0,1.0,96,0.01,,SKC,0.01,VWS V14.01,2013-05-31 08:00:00,
2013-05-31 03:10:00,65.0,63.8,29.56,South,180,0.0,2.0,96,0.16,,SKC,0.16,VWS V14.01,2013-05-31 08:10:00,
2013-05-31 03:20:00,65.0,64.1,29.54,South,180,1.0,5.0,97,0.27,,SKC,0.27,VWS V14.01,2013-05-31 08:20:00,
2013-05-31 03:30:00,65.0,63.8,29.53,SE,135,4.0,14.0,96,0.33,,SKC,0.33,VWS V14.01,2013-05-31 08:30:00,
2013-05-31 03:40:00,64.4,63.2,29.51,SE,135,4.0,15.0,96,0.36,,SKC,0.36,VWS V14.01,2013-05-31 08:40:00,
2013-05-31 03:50:00,63.0,61.5,29.50,SSE,158,2.0,13.0,95,0.36,,SKC,0.36,VWS V14.01,2013-05-31 08:50:00,
2013-05-31 04:00:00,61.7,60.0,29.49,SSE,158,1.0,6.0,94,0.36,,SKC,0.36,VWS V14.01,2013-05-31 09:00:00,
2013-05-31 04:10:00,60.9,59.5,29.47,SSE,158,0.0,3.0,95,0.35,,SKC,0.36,VWS V14.01,2013-05-31 09:10:00,
2013-05-31 04:20:00,60.4,59.0,29.47,SSE,158,0.0,6.0,95,0.20,,SKC,0.36,VWS V14.01,2013-05-31 09:20:00,
2013-05-31 04:30:00,60.1,58.7,29.49,SSE,158,1.0,7.0,95,0.09,,SKC,0.36,VWS V14.01,2013-05-31 09:30:00,
2013-05-31 04:40:00,59.9,58.5,29.49,SE,135,2.0,11.0,95,0.03,,SKC,0.36,VWS V14.01,2013-05-31 09:40:00,
2013-05-31 04:50:00,60.2,59.1,29.51,SSE,158,2.0,11.0,96,0.01,,SKC,0.37,VWS V14.01,2013-05-31 09:50:00,
2013-05-31 05:00:00,61.0,59.9,29.47,SE,135,1.0,10.0,96,0.01,,SKC,0.37,VWS V14.01,2013-05-31 10:00:00,
2013-05-31 05:10:00,61.6,60.7,29.48,SE,135,1.0,6.0,97,0.02,,SKC,0.38,VWS V14.01,2013-05-31 10:10:00,
2013-05-31 05:20:00,62.1,61.2,29.47,SE,135,1.0,8.0,97,0.02,,SKC,0.38,VWS V14.01,2013-05-31 10:20:00,
2013-05-31 05:30:00,62.4,61.5,29.46,SE,135,0.0,6.0,97,0.02,,SKC,0.38,VWS V14.01,2013-05-31 10:30:00,
2013-05-31 05:40:00,62.5,61.6,29.48,SE,135,0.0,7.0,97,0.02,,SKC,0.38,VWS V14.01,2013-05-31 10:40:00,
2013-05-31 05:50:00,62.5,61.3,29.48,SSE,158,1.0,7.0,96,0.02,,SKC,0.38,VWS V14.01,2013-05-31 10:50:00,
2013-05-31 06:00:00,62.7,61.8,29.48,SE,135,1.0,9.0,97,0.01,,SKC,0.38,VWS V14.01,2013-05-31 11:00:00,
2013-05-31 06:10:00,62.8,61.7,29.48,SE,135,0.0,5.0,96,0.01,,SKC,0.38,VWS V14.01,2013-05-31 11:10:00,
2013-05-31 06:20:00,62.8,61.9,29.49,SE,135,1.0,10.0,97,0.00,,SKC,0.38,VWS V14.01,2013-05-31 11:20:00,
2013-05-31 06:30:00,62.9,62.0,29.50,SSE,158,0.0,4.0,97,0.00,,SKC,0.38,VWS V14.01,2013-05-31 11:30:00,
2013-05-31 06:40:00,63.1,62.2,29.51,SSE,158,0.0,4.0,97,0.00,,SKC,0.38,VWS V14.01,2013-05-31 11:40:00,
2013-05-31 06:50:00,63.2,62.3,29.50,SSE,158,0.0,0.0,97,0.00,,SKC,0.38,VWS V14.01,2013-05-31 11:50:00,
2013-05-31 07:00:00,63.2,62.3,29.51,SSE,158,0.0,0.0,97,0.00,,SKC,0.38,VWS V14.01,2013-05-31 12:00:00,
2013-05-31 07:10:00,63.2,62.3,29.52,SSE,158,0.0,0.0,97,0.00,,SKC,0.38,VWS V14.01,2013-05-31 12:10:00,
2013-05-31 07:20:00,63.2,62.3,29.52,SSE,158,0.0,0.0,97,0.00,,SKC,0.38,VWS V14.01,2013-05-31 12:20:00,
2013-05-31 07:30:00,63.2,62.3,29.52,SSE,158,0.0,0.0,97,0.00,,SKC,0.38,VWS V14.01,2013-05-31 12:30:00,
2013-05-31 07:40:00,63.2,62.3,29.52,SSE,158,0.0,0.0,97,0.00,,SKC,0.38,VWS V14.01,2013-05-31 12:40:00,
2013-05-31 07:50:00,63.3,62.4,29.53,SSE,158,0.0,0.0,97,0.00,,SKC,0.38,VWS V14.01,2013-05-31 12:50:00,
2013-05-31 08:00:00,63.4,62.5,29.54,SSE,158,0.0,1.0,97,0.00,,SKC,0.38,VWS V14.01,2013-05-31 13:00:00,
2013-05-31 08:10:00,63.4,62.5,29.54,SSE,158,0.0,0.0,97,0.00,,SKC,0.38,VWS V14.01,2013-05-31 13:10:00,
2013-05-31 08:20:00,63.4,62.5,29.54,SSE,158,0.0,0.0,97,0.00,,SKC,0.38,VWS V14.01,2013-05-31 13:20:00,
2013-05-31 08:30:00,63.4,62.5,29.53,SE,135,0.0,1.0,97,0.00,,SKC,0.38,VWS V14.01,2013-05-31 13:30:00,
2013-05-31 08:40:00,63.5,62.6,29.54,SSE,158,0.0,2.0,97,0.00,,SKC,0.38,VWS V14.01,2013-05-31 13:40:00,
2013-05-31 08:50:00,63.8,63.2,29.53,SSE,158,0.0,1.0,98,0.00,,SKC,0.38,VWS V14.01,2013-05-31 13:50:00,
2013-05-31 09:00:00,64.1,63.5,29.54,SE,135,0.0,5.0,98,0.00,,SKC,0.38,VWS V14.01,2013-05-31 14:00:00,
2013-05-31 09:10:00,64.3,63.4,29.54,SE,135,0.0,4.0,97,0.00,,SKC,0.38,VWS V14.01,2013-05-31 14:10:00,
2013-05-31 09:20:00,64.3,63.4,29.55,SE,135,0.0,0.0,97,0.00,,SKC,0.38,VWS V14.01,2013-05-31 14:20:00,
2013-05-31 09:30:00,64.3,63.4,29.55,SW,225,0.0,1.0,97,0.00,,SKC,0.38,VWS V14.01,2013-05-31 14:30:00,
2013-05-31 09:40:00,64.3,63.4,29.56,SSW,202,0.0,1.0,97,0.00,,SKC,0.38,VWS V14.01,2013-05-31 14:40:00,
2013-05-31 09:50:00,64.3,63.4,29.57,SSW,202,0.0,1.0,97,0.00,,SKC,0.38,VWS V14.01,2013-05-31 14:50:00,
2013-05-31 10:00:00,64.3,63.4,29.57,SSW,202,1.0,5.0,97,0.02,,SKC,0.40,VWS V14.01,2013-05-31 15:00:00,
2013-05-31 10:10:00,64.5,63.9,29.57,SW,225,0.0,1.0,98,0.03,,SKC,0.41,VWS V14.01,2013-05-31 15:10:00,
2013-05-31 10:20:00,64.6,64.0,29.57,SW,225,0.0,0.0,98,0.03,,SKC,0.41,VWS V14.01,2013-05-31 15:20:00,
2013-05-31 10:30:00,64.8,64.2,29.58,SW,225,0.0,0.0,98,0.03,,SKC,0.41,VWS V14.01,2013-05-31 15:30:00,
2013-05-31 10:40:00,65.2,64.6,29.58,SW,225,0.0,0.0,98,0.03,,SKC,0.41,VWS V14.01,2013-05-31 15:40:00,
2013-05-31 10:50:00,65.4,64.8,29.58,SW,225,0.0,0.0,98,0.03,,SKC,0.41,VWS V14.01,2013-05-31 15:50:00,
2013-05-31 11:00:00,65.4,64.8,29.58,SW,225,0.0,0.0,98,0.03,,SKC,0.41,VWS V14.01,2013-05-31 16:00:00,
2013-05-31 11:10:00,65.5,64.9,29.58,SW,225,0.0,0.0,98,0.02,,SKC,0.42,VWS V14.01,2013-05-31 16:10:00,
2013-05-31 11:20:00,65.3,64.4,29.58,SW,225,0.0,0.0,97,0.01,,SKC,0.42,VWS V14.01,2013-05-31 16:20:00,
2013-05-31 11:30:00,65.4,64.8,29.58,South,180,0.0,1.0,98,0.01,,SKC,0.42,VWS V14.01,2013-05-31 16:30:00,
2013-05-31 11:40:00,65.4,64.8,29.59,South,180,0.0,0.0,98,0.01,,SKC,0.42,VWS V14.01,2013-05-31 16:40:00,
2013-05-31 11:50:00,65.7,65.1,29.58,SSE,158,0.0,1.0,98,0.01,,SKC,0.42,VWS V14.01,2013-05-31 16:50:00,
2013-05-31 12:00:00,66.3,65.7,29.57,SSE,158,0.0,3.0,98,0.01,,SKC,0.42,VWS V14.01,2013-05-31 17:00:00,
2013-05-31 12:10:00,67.6,67.0,29.58,SE,135,0.0,5.0,98,0.01,,SKC,0.42,VWS V14.01,2013-05-31 17:10:00,
2013-05-31 12:20:00,68.4,67.8,29.57,ESE,112,0.0,4.0,98,0.00,,SKC,0.42,VWS V14.01,2013-05-31 17:20:00,
2013-05-31 12:30:00,69.2,68.3,29.58,ESE,112,0.0,5.0,97,0.00,,SKC,0.42,VWS V14.01,2013-05-31 17:30:00,
2013-05-31 12:40:00,70.0,68.5,29.58,East,90,0.0,1.0,95,0.00,,SKC,0.42,VWS V14.01,2013-05-31 17:40:00,
2013-05-31 12:50:00,70.8,68.4,29.58,East,90,0.0,1.0,92,0.00,,SKC,0.42,VWS V14.01,2013-05-31 17:50:00,
2013-05-31 13:00:00,71.4,68.0,29.59,East,90,0.0,1.0,89,0.00,,SKC,0.42,VWS V14.01,2013-05-31 18:00:00,
2013-05-31 13:10:00,71.7,68.0,29.58,East,90,0.0,4.0,88,0.00,,SKC,0.42,VWS V14.01,2013-05-31 18:10:00,
2013-05-31 13:20:00,72.2,68.8,29.58,East,90,0.0,3.0,89,0.00,,SKC,0.42,VWS V14.01,2013-05-31 18:20:00,
2013-05-31 13:30:00,73.3,69.2,29.57,ENE,68,0.0,1.0,87,0.00,,SKC,0.42,VWS V14.01,2013-05-31 18:30:00,
2013-05-31 13:40:00,74.2,68.7,29.57,ENE,68,0.0,3.0,83,0.00,,SKC,0.42,VWS V14.01,2013-05-31 18:40:00,
2013-05-31 13:50:00,75.1,69.9,29.57,ENE,68,0.0,1.0,84,0.00,,SKC,0.42,VWS V14.01,2013-05-31 18:50:00,
2013-05-31 14:00:00,75.5,69.6,29.56,ENE,68,0.0,1.0,82,0.00,,SKC,0.42,VWS V14.01,2013-05-31 19:00:00,
2013-05-31 14:10:00,75.8,69.6,29.56,ENE,68,0.0,3.0,81,0.00,,SKC,0.42,VWS V14.01,2013-05-31 19:10:00,
2013-05-31 14:20:00,76.2,70.3,29.55,ENE,68,0.0,4.0,82,0.00,,SKC,0.42,VWS V14.01,2013-05-31 19:20:00,
2013-05-31 14:30:00,76.7,71.2,29.55,NNE,22,0.0,1.0,83,0.00,,SKC,0.42,VWS V14.01,2013-05-31 19:30:00,
2013-05-31 14:40:00,77.1,70.1,29.55,NNE,22,0.0,2.0,79,0.00,,SKC,0.42,VWS V14.01,2013-05-31 19:40:00,
2013-05-31 14:50:00,77.2,69.8,29.54,NNE,22,0.0,2.0,78,0.00,,SKC,0.42,VWS V14.01,2013-05-31 19:50:00,
2013-05-31 15:00:00,77.8,71.1,29.55,NE,45,0.0,1.0,80,0.00,,SKC,0.42,VWS V14.01,2013-05-31 20:00:00,
2013-05-31 15:10:00,78.0,69.1,29.56,NE,45,0.0,3.0,74,0.00,,SKC,0.42,VWS V14.01,2013-05-31 20:10:00,
2013-05-31 15:20:00,78.4,71.0,29.56,ENE,68,0.0,4.0,78,0.00,,SKC,0.42,VWS V14.01,2013-05-31 20:20:00,
2013-05-31 15:30:00,78.6,71.2,29.56,East,90,0.0,4.0,78,0.00,,SKC,0.42,VWS V14.01,2013-05-31 20:30:00,
2013-05-31 15:40:00,78.7,70.5,29.55,East,90,1.0,6.0,76,0.00,,SKC,0.42,VWS V14.01,2013-05-31 20:40:00,
2013-05-31 15:50:00,78.7,69.7,29.55,ESE,112,0.0,5.0,74,0.00,,SKC,0.42,VWS V14.01,2013-05-31 20:50:00,
2013-05-31 16:00:00,78.5,69.5,29.55,ESE,112,0.0,5.0,74,0.00,,SKC,0.42,VWS V14.01,2013-05-31 21:00:00,
2013-05-31 16:10:00,78.7,70.1,29.55,ESE,112,0.0,2.0,75,0.00,,SKC,0.42,VWS V14.01,2013-05-31 21:10:00,
2013-05-31 16:20:00,79.0,71.6,29.55,ESE,112,0.0,4.0,78,0.00,,SKC,0.42,VWS V14.01,2013-05-31 21:20:00,
2013-05-31 16:30:00,79.4,70.4,29.55,ESE,112,0.0,6.0,74,0.00,,SKC,0.42,VWS V14.01,2013-05-31 21:30:00,
2013-05-31 16:40:00,79.5,71.3,29.53,SE,135,0.0,4.0,76,0.00,,SKC,0.42,VWS V14.01,2013-05-31 21:40:00,
2013-05-31 16:50:00,79.8,71.9,29.52,SE,135,0.0,0.0,77,0.00,,SKC,0.42,VWS V14.01,2013-05-31 21:50:00,
2013-05-31 17:00:00,80.5,72.2,29.51,SE,135,0.0,3.0,76,0.00,,SKC,0.42,VWS V14.01,2013-05-31 22:00:00,
2013-05-31 17:10:00,80.9,70.6,29.52,SE,135,0.0,3.0,71,0.00,,SKC,0.42,VWS V14.01,2013-05-31 22:10:00,
2013-05-31 17:20:00,81.1,71.2,29.52,SSE,158,0.0,4.0,72,0.00,,SKC,0.42,VWS V14.01,2013-05-31 22:20:00,
2013-05-31 17:30:00,81.2,67.9,29.53,SW,225,1.0,9.0,64,0.00,,SKC,0.42,VWS V14.01,2013-05-31 22:30:00,
2013-05-31 17:40:00,81.1,65.9,29.53,WNW,292,1.0,10.0,60,0.00,,SKC,0.42,VWS V14.01,2013-05-31 22:40:00,
2013-05-31 17:50:00,81.3,63.6,29.53,WNW,292,1.0,6.0,55,0.00,,SKC,0.42,VWS V14.01,2013-05-31 22:50:00,
2013-05-31 18:00:00,81.3,63.6,29.52,WSW,248,1.0,8.0,55,0.00,,SKC,0.42,VWS V14.01,2013-05-31 23:00:00,
2013-05-31 18:20:00,81.2,62.5,29.52,West,270,0.0,4.0,53,0.00,,SKC,0.42,VWS V14.01,2013-05-31 23:20:00,
2013-05-31 18:30:00,80.8,63.7,29.52,West,270,0.0,2.0,56,0.00,,SKC,0.42,VWS V14.01,2013-05-31 23:30:00,
2013-05-31 18:40:00,80.4,63.8,29.51,West,270,0.0,3.0,57,0.00,,SKC,0.42,VWS V14.01,2013-05-31 23:40:00,
2013-05-31 18:50:00,80.3,63.7,29.51,West,270,0.0,1.0,57,0.00,,SKC,0.42,VWS V14.01,2013-05-31 23:50:00,
2013-05-31 19:00:00,80.3,64.2,29.51,West,270,0.0,0.0,58,0.00,,SKC,0.42,VWS V14.01,2013-06-01 00:00:00,
2013-05-31 19:10:00,80.5,64.9,29.52,West,270,0.0,0.0,59,0.00,,SKC,0.42,VWS V14.01,2013-06-01 00:10:00,
2013-05-31 19:20:00,80.8,65.2,29.52,West,270,0.0,1.0,59,0.00,,SKC,0.42,VWS V14.01,2013-06-01 00:20:00,
2013-05-31 19:30:00,80.9,64.8,29.52,West,270,0.0,0.0,58,0.00,,SKC,0.42,VWS V14.01,2013-06-01 00:30:00,
2013-05-31 19:40:00,80.9,65.7,29.53,West,270,0.0,0.0,60,0.00,,SKC,0.42,VWS V14.01,2013-06-01 00:40:00,
2013-05-31 19:50:00,80.6,65.4,29.53,West,270,0.0,0.0,60,0.00,,SKC,0.42,VWS V14.01,2013-06-01 00:50:00,
2013-05-31 20:00:00,80.1,67.7,29.53,West,270,0.0,0.0,66,0.00,,SKC,0.42,VWS V14.01,2013-06-01 01:00:00,
2013-05-31 20:10:00,78.9,69.9,29.53,WSW,248,0.0,1.0,74,0.00,,SKC,0.42,VWS V14.01,2013-06-01 01:10:00,
2013-05-31 20:20:00,77.9,69.7,29.53,WSW,248,0.0,0.0,76,0.00,,SKC,0.42,VWS V14.01,2013-06-01 01:20:00,
2013-05-31 20:30:00,76.7,69.7,29.53,WSW,248,0.0,0.0,79,0.00,,SKC,0.42,VWS V14.01,2013-06-01 01:30:00,
2013-05-31 20:40:00,75.4,69.2,29.54,SW,225,0.0,3.0,81,0.00,,SKC,0.42,VWS V14.01,2013-06-01 01:40:00,
2013-05-31 20:50:00,74.4,68.9,29.54,SW,225,0.0,1.0,83,0.00,,SKC,0.42,VWS V14.01,2013-06-01 01:50:00,
2013-05-31 21:00:00,73.6,68.5,29.54,SW,225,0.0,0.0,84,0.00,,SKC,0.42,VWS V14.01,2013-06-01 02:00:00,
2013-05-31 21:10:00,72.8,68.4,29.56,SW,225,0.0,0.0,86,0.00,,SKC,0.42,VWS V14.01,2013-06-01 02:10:00,
2013-05-31 21:20:00,72.1,68.0,29.56,SW,225,0.0,0.0,87,0.00,,SKC,0.42,VWS V14.01,2013-06-01 02:20:00,
2013-05-31 21:30:00,71.6,67.9,29.57,SW,225,0.0,0.0,88,0.00,,SKC,0.42,VWS V14.01,2013-06-01 02:30:00,
2013-05-31 21:40:00,71.3,67.9,29.56,SW,225,0.0,3.0,89,0.00,,SKC,0.42,VWS V14.01,2013-06-01 02:40:00,
2013-05-31 21:50:00,71.0,67.6,29.56,SW,225,0.0,1.0,89,0.00,,SKC,0.42,VWS V14.01,2013-06-01 02:50:00,
2013-05-31 22:00:00,70.7,67.9,29.57,SW,225,0.0,0.0,91,0.00,,SKC,0.42,VWS V14.01,2013-06-01 03:00:00,
2013-05-31 22:10:00,70.6,67.8,29.57,SW,225,0.0,0.0,91,0.00,,SKC,0.42,VWS V14.01,2013-06-01 03:10:00,
2013-05-31 22:20:00,70.4,67.7,29.57,SW,225,0.0,0.0,91,0.00,,SKC,0.42,VWS V14.01,2013-06-01 03:20:00,
2013-05-31 22:30:00,70.2,67.4,29.58,SW,225,0.0,0.0,91,0.00,,SKC,0.42,VWS V14.01,2013-06-01 03:30:00,
2013-05-31 22:40:00,70.0,67.3,29.58,SW,225,0.0,0.0,91,0.00,,SKC,0.42,VWS V14.01,2013-06-01 03:40:00,
2013-05-31 22:50:00,69.9,67.5,29.58,SW,225,0.0,0.0,92,0.00,,SKC,0.42,VWS V14.01,2013-06-01 03:50:00,
2013-05-31 23:00:00,69.8,67.4,29.58,SW,225,0.0,2.0,92,0.00,,SKC,0.42,VWS V14.01,2013-06-01 04:00:00,
2013-05-31 23:10:00,69.6,67.5,29.57,SW,225,0.0,3.0,93,0.00,,SKC,0.42,VWS V14.01,2013-06-01 04:10:00,
2013-05-31 23:20:00,69.5,67.4,29.57,SW,225,0.0,1.0,93,0.00,,SKC,0.42,VWS V14.01,2013-06-01 04:20:00,
2013-05-31 23:30:00,69.5,67.7,29.56,SW,225,0.0,1.0,94,0.00,,SKC,0.42,VWS V14.01,2013-06-01 04:30:00,
2013-05-31 23:40:00,69.5,67.7,29.58,SW,225,0.0,4.0,94,0.00,,SKC,0.42,VWS V14.01,2013-06-01 04:40:00,
2013-05-31 23:50:00,69.5,67.7,29.57,SSW,202,0.0,5.0,94,0.00,,SKC,0.42,VWS V14.01,2013-06-01 04:50:00,